• Join FlightAware (Why Join?)
  • Login
  • US Flag 
11:55AM EDT


 

Airport Tracker/Info


-or-


 

Live Flight TrackerFlight Track Log ✈ CTL18 ✈ 29-Apr-2013 ✈ KYIP - KBKL

Flight Track Log - Related Links

Times and Time Zones

All times are in EDT time to prevent confusion due to time zone crossing. See the CTL18 flight status page for this flight to view local times or setup timezone preferences in your user account.

Time Position Orientation Groundspeed Altitude Reporting Facility
EDT Latitude Longitude Course Direction KTS MPH feet Rate Location/Type
09:06PM 42.2150 -83.5692 238° Southwest 112 129 1,600  Level Cleveland Center
09:07PM 42.1914 -83.5989 223° Southwest 109 125 2,500 600 Climbing Cleveland Center
09:08PM 42.1578 -83.6056 188° South 135 155 2,900 180 Climbing Cleveland Center
09:09PM 42.1139 -83.6147 189° South 165 190 2,900  Level Cleveland Center
09:10PM 42.0764 -83.6075 172° South 157 181 2,900  Level Cleveland Center
09:11PM 42.0592 -83.5478 111° Southeast 163 188 3,000  Climbing Cleveland Center
09:12PM 42.0442 -83.4828 107° East 163 188 3,000  Level Cleveland Center
09:13PM 42.0269 -83.4178 110° East 165 190 3,000  Level Cleveland Center
09:14PM 42.0097 -83.3639 113° Southeast 167 192 3,000  Level Cleveland Center
09:15PM 41.9964 -83.3072 108° East 168 193 3,000  Level Cleveland Center
09:16PM 41.9769 -83.2478 114° Southeast 170 196 3,000  Level Cleveland Center
09:17PM 41.9536 -83.1797 115° Southeast 167 192 3,000 240 Level Cleveland Center
09:18PM 41.9403 -83.1233 108° East 153 176 3,600 540 Climbing Cleveland Center
09:19PM 41.9267 -83.0756 111° Southeast 149 171 4,100 480 Climbing Cleveland Center
09:20PM 41.9108 -83.0275 114° Southeast 146 168 4,600 420 Climbing Cleveland Center
09:21PM 41.8994 -82.9767 107° East 144 166 5,000 180 Climbing Cleveland Center
09:22PM 41.8839 -82.9233 111° Southeast 162 186 5,000  Level Cleveland Center
09:23PM 41.8683 -82.8753 113° Southeast 168 193 5,100  Climbing Cleveland Center
09:24PM 41.8528 -82.8161 109° East 171 197 5,100  Level Cleveland Center
09:25PM 41.8372 -82.7625 111° Southeast 172 198 5,200  Climbing Cleveland Center
09:26PM 41.8256 -82.7036 105° East 168 193 5,100 -60 Descending Cleveland Center
09:27PM 41.8103 -82.6336 106° East 174 200 5,100 -60 Level Cleveland Center
09:28PM 41.7967 -82.5717 106° East 171 197 5,000 -300 Descending Cleveland Center
09:29PM 41.7811 -82.5072 108° East 185 213 4,600 -300 Descending Cleveland Center
09:30PM 41.7697 -82.4400 103° East 183 211 4,400 -300 Descending Cleveland Center
09:31PM 41.7583 -82.3758 103° East 181 208 4,100 -300 Descending Cleveland Center
09:32PM 41.7467 -82.3142 104° East 180 207 3,900 -300 Descending Cleveland Center
09:33PM 41.7311 -82.2525 109° East 178 205 3,600 -420 Descending Cleveland Center
09:34PM 41.7153 -82.1853 107° East 172 198 3,100 -300 Descending Cleveland Center
09:35PM 41.7036 -82.1239 104° East 171 197 3,000  Descending Cleveland Center
09:36PM 41.6856 -82.0678 113° Southeast 158 182 3,100 -60 Climbing Cleveland Center
09:37PM 41.6694 -82.0203 114° Southeast 158 182 2,900 -420 Descending Cleveland Center
09:38PM 41.6431 -81.9586 120° Southeast 172 198 2,300 -480 Descending Cleveland Center
09:39PM 41.6189 -81.9053 121° Southeast 164 189 2,000 -300 Descending Cleveland Center
09:40PM 41.5922 -81.8603 128° Southeast 155 178 1,800 -180 Descending Cleveland Center
09:41PM 41.5636 -81.8153 130° Southeast 151 174 1,700 -120 Descending Cleveland Center
09:42PM 41.5411 -81.7733 126° Southeast 146 168 1,600 -300 Descending Cleveland Center
09:43PM 41.5144 -81.7311 130° Southeast 144 166 1,100 -540 Descending Cleveland Center